Chandler Heights, Arizona
Current Conditions -  °F | °C
As of 4:47 PM on Friday 21 Nov 2014 (Local Time) from KIWA Reporting Station
Broken Clouds Broken Clouds  
Wind Chill: 66°   Ceiling: 15000
Heat Index: 66°   Visibility: 45mi
Dew Point: 25°   Wind: 7mph
Humidity: 21%   Direction: 300°WNW
Pressure: 29.9"   Gusts: NA
Location:  33.21°N, 111.69°W
Report Text: KIWA 212347Z 30006KT 45SM BKN150 19/M04 A2990
Loading
Personal Weather Stations






























Interactive Weather Map New forecast layout! Learn more

10-Day Weather Forecast

Advertisements
Track Severe Weather on mobile